createdAt,value
2019-02-21T00:01:51.169Z,5.81
2019-02-21T00:04:18.246Z,5.82
2019-02-21T00:06:45.427Z,5.77
2019-02-21T00:09:12.714Z,5.78
2019-02-21T00:11:40.301Z,5.81
2019-02-21T00:14:07.681Z,5.80
2019-02-21T00:16:35.221Z,5.79
2019-02-21T00:19:02.918Z,5.68
2019-02-21T00:21:32.490Z,5.54
2019-02-21T00:23:59.558Z,5.32
2019-02-21T00:26:27.030Z,5.15
2019-02-21T00:28:54.159Z,4.97
2019-02-21T00:31:21.221Z,4.82
2019-02-21T00:33:48.794Z,4.66
2019-02-21T00:36:16.204Z,4.54
2019-02-21T00:38:44.409Z,4.43
2019-02-21T00:41:11.505Z,4.37
2019-02-21T00:43:38.577Z,4.44
2019-02-21T00:46:05.638Z,4.36
2019-02-21T00:48:39.010Z,4.21
2019-02-21T00:51:42.966Z,4.08
2019-02-21T00:54:10.080Z,3.94
2019-02-21T00:56:37.146Z,3.81
2019-02-21T00:59:04.201Z,3.66
2019-02-21T01:01:31.301Z,3.53
2019-02-21T01:03:58.338Z,3.45
2019-02-21T01:06:25.381Z,3.40
2019-02-21T01:08:52.498Z,3.29
2019-02-21T01:11:19.670Z,3.20
2019-02-21T01:13:47.331Z,3.15
2019-02-21T01:16:14.453Z,3.09
2019-02-21T01:18:41.600Z,3.04
2019-02-21T01:21:08.731Z,2.99
2019-02-21T01:23:35.811Z,2.96
2019-02-21T01:26:02.879Z,2.92
2019-02-21T01:28:30.043Z,2.87
2019-02-21T01:30:57.444Z,2.85
2019-02-21T01:33:24.490Z,2.85
2019-02-21T01:35:51.553Z,2.81
2019-02-21T01:38:18.663Z,2.77
2019-02-21T01:40:45.866Z,2.82
2019-02-21T01:43:12.961Z,2.87
2019-02-21T01:45:40.053Z,2.98
2019-02-21T01:48:59.468Z,3.08
2019-02-21T01:51:26.286Z,3.07
2019-02-21T01:53:53.338Z,3.14
2019-02-21T01:56:20.415Z,3.29
2019-02-21T01:58:47.482Z,3.32
2019-02-21T02:01:14.542Z,3.59
2019-02-21T02:03:41.657Z,3.69
2019-02-21T02:06:09.036Z,3.66
2019-02-21T02:08:36.313Z,3.61
2019-02-21T02:11:03.399Z,3.56
2019-02-21T02:13:30.448Z,3.51
2019-02-21T02:15:57.480Z,3.51
2019-02-21T02:18:24.568Z,3.53
2019-02-21T02:20:57.007Z,3.65
2019-02-21T02:23:24.071Z,3.73
2019-02-21T02:25:51.286Z,3.90
2019-02-21T02:28:18.327Z,4.13
2019-02-21T02:30:45.375Z,4.25
2019-02-21T02:33:12.448Z,4.37
2019-02-21T02:35:39.507Z,4.52
2019-02-21T02:38:06.545Z,4.65
2019-02-21T02:40:33.627Z,4.78
2019-02-21T02:43:00.716Z,4.87
2019-02-21T02:45:27.761Z,4.98
2019-02-21T02:47:54.856Z,5.08
2019-02-21T02:50:23.929Z,5.20
2019-02-21T02:52:50.993Z,5.26
2019-02-21T02:55:18.235Z,5.26
2019-02-21T02:57:45.502Z,5.31
2019-02-21T03:00:13.663Z,5.34
2019-02-21T03:02:40.722Z,5.40
2019-02-21T03:05:07.809Z,5.43
2019-02-21T03:07:34.900Z,5.50
2019-02-21T03:10:02.165Z,5.56
2019-02-21T03:12:31.064Z,5.60
2019-02-21T03:14:58.134Z,5.68
2019-02-21T03:17:25.296Z,5.74
2019-02-21T03:19:52.389Z,5.76
2019-02-21T03:22:19.471Z,5.74
2019-02-21T03:24:47.188Z,5.74
2019-02-21T03:27:14.326Z,5.74
2019-02-21T03:29:41.402Z,5.74
2019-02-21T03:32:08.506Z,5.69
2019-02-21T03:34:35.587Z,5.69
2019-02-21T03:37:02.597Z,5.66
2019-02-21T03:39:29.665Z,5.64
2019-02-21T03:41:57.088Z,5.54
2019-02-21T03:44:24.148Z,5.49
2019-02-21T03:46:51.230Z,5.45
2019-02-21T03:49:19.498Z,5.39
2019-02-21T03:51:46.563Z,5.39
2019-02-21T03:54:13.643Z,5.33
2019-02-21T03:56:40.699Z,5.31
2019-02-21T03:59:20.241Z,5.29
2019-02-21T04:02:05.633Z,5.29
2019-02-21T04:04:31.429Z,5.29
2019-02-21T04:06:58.485Z,5.29
2019-02-21T04:09:25.516Z,5.31
2019-02-21T04:12:04.891Z,5.26
2019-02-21T04:14:33.371Z,5.26
2019-02-21T04:17:00.433Z,5.30
2019-02-21T04:19:27.516Z,5.33
2019-02-21T04:21:54.679Z,5.31
2019-02-21T04:24:21.728Z,5.31
2019-02-21T04:26:53.024Z,5.33
2019-02-21T04:29:20.136Z,5.29
2019-02-21T04:31:59.310Z,5.30
2019-02-21T04:34:26.399Z,5.29
2019-02-21T04:36:53.444Z,5.32
2019-02-21T04:39:20.485Z,5.39
2019-02-21T04:41:47.552Z,5.43
2019-02-21T04:44:14.605Z,5.49
2019-02-21T04:46:41.843Z,5.53
2019-02-21T04:49:08.896Z,5.59
2019-02-21T04:51:35.964Z,5.63
2019-02-21T04:54:03.035Z,5.65
2019-02-21T04:56:30.219Z,5.68
2019-02-21T04:58:57.267Z,5.72
2019-02-21T05:01:24.317Z,5.75
2019-02-21T05:03:51.412Z,5.79
2019-02-21T05:06:18.469Z,5.79
2019-02-21T05:08:45.614Z,5.79
2019-02-21T05:11:12.696Z,5.76
2019-02-21T05:13:39.828Z,5.72
2019-02-21T05:16:07.002Z,5.69
2019-02-21T05:18:34.099Z,5.67
2019-02-21T05:21:01.141Z,5.64
2019-02-21T05:23:28.271Z,5.67
2019-02-21T05:25:55.401Z,5.70
2019-02-21T05:32:49.664Z,5.70
2019-02-21T05:35:36.314Z,5.69
2019-02-21T05:38:10.300Z,5.61
2019-02-21T05:41:09.324Z,5.53
2019-02-21T05:44:08.035Z,5.48
2019-02-21T05:46:54.691Z,5.43
2019-02-21T05:49:44.485Z,5.38
2019-02-21T05:52:46.228Z,5.39
2019-02-21T05:55:22.142Z,5.37
2019-02-21T05:58:07.660Z,5.33
2019-02-21T06:00:57.405Z,5.28
2019-02-21T06:03:44.052Z,5.23
2019-02-21T06:06:32.825Z,5.23
2019-02-21T06:09:06.803Z,5.14
2019-02-21T06:12:04.365Z,5.06
2019-02-21T06:14:51.323Z,5.00
2019-02-21T06:17:34.353Z,4.97
2019-02-21T06:20:10.933Z,4.95
2019-02-21T06:22:48.671Z,4.92
2019-02-21T06:25:35.371Z,4.91
2019-02-21T06:28:23.222Z,4.87
2019-02-21T06:31:02.448Z,4.82
2019-02-21T06:33:29.514Z,4.85
2019-02-21T06:35:56.573Z,4.84
2019-02-21T06:38:23.679Z,4.85
2019-02-21T06:40:50.849Z,4.87
2019-02-21T06:43:17.931Z,4.88
2019-02-21T06:45:45.023Z,4.91
2019-02-21T06:48:12.183Z,4.98
2019-02-21T06:50:39.242Z,5.05
2019-02-21T06:53:06.394Z,5.06
2019-02-21T06:55:33.458Z,5.04
2019-02-21T06:58:00.561Z,5.05
2019-02-21T07:00:27.676Z,5.16
2019-02-21T07:02:54.785Z,5.17
2019-02-21T07:05:21.908Z,5.22
2019-02-21T07:07:49.904Z,5.26
2019-02-21T07:10:17.135Z,5.31
2019-02-21T07:12:46.255Z,5.34
2019-02-21T07:15:15.152Z,5.37
2019-02-21T07:17:49.239Z,5.43
2019-02-21T07:20:13.001Z,5.53
2019-02-21T07:22:40.333Z,5.58
2019-02-21T07:25:33.001Z,5.65
2019-02-21T07:28:10.983Z,5.73
2019-02-21T07:30:29.209Z,5.81
2019-02-21T07:32:56.311Z,5.83
2019-02-21T07:35:23.378Z,5.88
2019-02-21T07:37:50.483Z,5.93
2019-02-21T07:40:20.343Z,5.97
2019-02-21T07:42:48.136Z,6.03
2019-02-21T07:45:15.712Z,6.13
2019-02-21T07:47:43.149Z,6.23
2019-02-21T07:50:10.207Z,6.31
2019-02-21T07:52:37.282Z,6.41
2019-02-21T07:55:04.713Z,6.51
2019-02-21T07:57:31.781Z,6.66
2019-02-21T07:59:58.868Z,6.77
2019-02-21T08:02:32.039Z,6.86
2019-02-21T08:04:59.080Z,6.90
2019-02-21T08:07:26.485Z,6.97
2019-02-21T08:09:53.744Z,7.07
2019-02-21T08:12:23.159Z,7.20
2019-02-21T08:14:49.799Z,7.31
2019-02-21T08:17:16.921Z,7.41
2019-02-21T08:19:43.974Z,7.48
2019-02-21T08:22:11.025Z,7.53
2019-02-21T08:24:38.111Z,7.59
2019-02-21T08:27:05.167Z,7.61
2019-02-21T08:29:32.233Z,7.56
2019-02-21T08:31:59.307Z,7.56
2019-02-21T08:34:32.875Z,7.55
2019-02-21T08:37:04.255Z,7.56
2019-02-21T08:39:31.293Z,7.56
2019-02-21T08:41:58.512Z,7.65
2019-02-21T08:44:25.677Z,7.74
2019-02-21T08:47:06.263Z,7.82
2019-02-21T08:49:33.474Z,7.84
2019-02-21T08:52:00.514Z,7.92
2019-02-21T08:54:27.571Z,7.95
2019-02-21T08:56:54.648Z,7.98
2019-02-21T08:59:21.736Z,8.02
2019-02-21T09:01:48.817Z,8.07
2019-02-21T09:04:27.713Z,8.11
2019-02-21T09:06:54.236Z,8.19
2019-02-21T09:09:21.318Z,8.27
2019-02-21T09:11:48.399Z,8.36
2019-02-21T09:14:15.450Z,8.52
2019-02-21T09:16:42.545Z,8.73
2019-02-21T09:19:09.609Z,8.84
2019-02-21T09:21:36.657Z,8.88
2019-02-21T09:24:03.836Z,8.93
2019-02-21T09:26:30.895Z,8.98
2019-02-21T09:29:03.174Z,9.03
2019-02-21T09:31:30.289Z,9.08
2019-02-21T09:33:57.360Z,9.05
2019-02-21T09:36:24.426Z,9.02
2019-02-21T09:38:51.512Z,9.01
2019-02-21T09:41:18.663Z,8.98
2019-02-21T09:43:45.776Z,8.97
2019-02-21T09:46:13.011Z,8.92
2019-02-21T09:48:40.067Z,8.88
2019-02-21T09:51:07.192Z,8.87
2019-02-21T09:53:34.308Z,8.84
2019-02-21T09:56:01.401Z,8.88
2019-02-21T09:58:34.835Z,8.92
2019-02-21T10:01:01.910Z,8.96
2019-02-21T10:03:32.304Z,9.01
2019-02-21T10:05:59.367Z,9.08
2019-02-21T10:08:26.460Z,9.12
2019-02-21T10:10:53.654Z,9.19
2019-02-21T10:13:20.728Z,9.22
2019-02-21T10:15:48.034Z,9.22
2019-02-21T10:18:15.099Z,9.25
2019-02-21T10:20:42.144Z,9.39
2019-02-21T10:23:09.361Z,9.54
2019-02-21T10:25:36.425Z,9.62
2019-02-21T10:28:03.495Z,9.75
2019-02-21T10:30:30.578Z,9.85
2019-02-21T10:33:18.887Z,10.06
2019-02-21T10:35:46.000Z,10.19
2019-02-21T10:38:13.070Z,10.18
2019-02-21T10:40:40.127Z,10.15
2019-02-21T10:43:07.279Z,10.13
2019-02-21T10:45:34.438Z,10.16
2019-02-21T10:48:01.520Z,10.33
2019-02-21T10:50:28.633Z,10.48
2019-02-21T10:52:55.683Z,10.71
2019-02-21T10:55:22.749Z,11.00
2019-02-21T10:57:49.838Z,11.21
2019-02-21T11:00:19.550Z,11.50
2019-02-21T11:02:46.592Z,11.78
2019-02-21T11:05:13.855Z,11.92
2019-02-21T11:07:40.928Z,11.95
2019-02-21T11:10:08.295Z,11.94
2019-02-21T11:12:35.402Z,11.88
2019-02-21T11:15:03.397Z,11.79
2019-02-21T11:17:30.459Z,11.70
2019-02-21T11:19:57.569Z,11.68
2019-02-21T11:22:24.632Z,11.60
2019-02-21T11:24:52.111Z,11.54
2019-02-21T11:27:19.306Z,11.52
2019-02-21T11:29:46.359Z,11.52
2019-02-21T11:32:13.711Z,11.62
2019-02-21T11:34:40.748Z,11.61
2019-02-21T11:37:07.818Z,11.62
2019-02-21T11:39:34.905Z,11.53
2019-02-21T11:42:02.081Z,11.38
2019-02-21T11:44:29.279Z,11.29
2019-02-21T11:46:56.554Z,11.22
2019-02-21T11:49:23.595Z,11.12
2019-02-21T11:51:50.728Z,11.06
2019-02-21T11:54:26.462Z,10.98
2019-02-21T11:56:52.683Z,10.99
2019-02-21T11:59:19.779Z,11.00
2019-02-21T12:01:46.858Z,11.01
2019-02-21T12:04:13.903Z,11.05
2019-02-21T12:06:41.000Z,11.04
2019-02-21T12:09:10.263Z,11.07
2019-02-21T12:11:37.371Z,11.15
2019-02-21T12:14:04.423Z,11.21
2019-02-21T12:16:31.647Z,11.14
2019-02-21T12:19:01.883Z,11.05
2019-02-21T12:21:28.959Z,10.96
2019-02-21T12:23:57.031Z,10.73
2019-02-21T12:26:24.103Z,10.60
2019-02-21T12:28:51.198Z,10.49
2019-02-21T12:31:18.276Z,10.47
2019-02-21T12:33:45.348Z,10.45
2019-02-21T12:36:12.441Z,10.49
2019-02-21T12:38:39.523Z,10.54
2019-02-21T12:41:06.782Z,10.64
2019-02-21T12:43:34.062Z,10.71
2019-02-21T12:46:01.210Z,10.79
2019-02-21T12:48:28.488Z,10.85
2019-02-21T12:50:55.573Z,10.87
2019-02-21T12:53:22.696Z,10.88
2019-02-21T12:55:49.771Z,10.88
2019-02-21T12:58:16.936Z,10.89
2019-02-21T13:00:44.009Z,10.89
2019-02-21T13:03:11.068Z,10.93
2019-02-21T13:05:41.399Z,10.94
2019-02-21T13:08:07.195Z,10.97
2019-02-21T13:10:35.069Z,11.04
2019-02-21T13:13:02.210Z,11.15
2019-02-21T13:15:29.383Z,11.25
2019-02-21T13:17:56.493Z,11.36
2019-02-21T13:20:28.237Z,11.46
2019-02-21T13:22:55.292Z,11.59
2019-02-21T13:25:22.393Z,11.66
2019-02-21T13:27:49.494Z,11.71
2019-02-21T13:30:16.727Z,11.79
2019-02-21T13:32:43.980Z,11.88
2019-02-21T13:35:26.184Z,11.97
2019-02-21T13:37:53.234Z,12.02
2019-02-21T13:40:21.326Z,12.09
2019-02-21T13:42:50.658Z,12.14
2019-02-21T13:45:18.145Z,12.18
2019-02-21T13:47:45.378Z,12.24
2019-02-21T13:50:13.969Z,12.33
2019-02-21T13:52:41.049Z,12.43
2019-02-21T13:55:08.100Z,12.48
2019-02-21T13:57:38.221Z,12.54
2019-02-21T14:00:08.110Z,12.55
2019-02-21T14:02:35.269Z,12.56
2019-02-21T14:05:02.331Z,12.54
2019-02-21T14:07:29.377Z,12.62
2019-02-21T14:09:56.470Z,12.62
2019-02-21T14:12:26.365Z,12.62
2019-02-21T14:14:52.855Z,12.59
2019-02-21T14:17:20.054Z,12.54
2019-02-21T14:19:47.143Z,12.42
2019-02-21T14:22:14.331Z,12.40
2019-02-21T14:24:41.399Z,12.37
2019-02-21T14:27:08.964Z,12.42
2019-02-21T14:29:39.488Z,12.44
2019-02-21T14:32:05.149Z,12.45
2019-02-21T14:34:32.270Z,12.53
2019-02-21T14:37:01.213Z,12.56
2019-02-21T14:39:28.626Z,12.57
2019-02-21T14:41:55.760Z,12.59
2019-02-21T14:44:23.024Z,12.55
2019-02-21T14:46:50.373Z,12.56
2019-02-21T14:49:17.608Z,12.57
2019-02-21T14:51:44.671Z,12.56
2019-02-21T14:54:11.750Z,12.63
2019-02-21T14:56:38.827Z,12.64
2019-02-21T14:59:05.896Z,12.67
2019-02-21T15:01:32.961Z,12.66
2019-02-21T15:04:08.633Z,12.61
2019-02-21T15:06:35.905Z,12.57
2019-02-21T15:09:04.472Z,12.45
2019-02-21T15:11:31.578Z,12.40
2019-02-21T15:13:58.651Z,12.40
2019-02-21T15:16:25.720Z,12.41
2019-02-21T15:18:55.194Z,12.33
2019-02-21T15:21:21.780Z,12.36
2019-02-21T15:23:48.829Z,12.32
2019-02-21T15:26:16.272Z,12.27
2019-02-21T15:28:43.320Z,12.23
2019-02-21T15:31:10.363Z,12.14
2019-02-21T15:33:37.621Z,12.11
2019-02-21T15:36:04.649Z,12.10
2019-02-21T15:38:31.746Z,12.08
2019-02-21T15:41:37.317Z,12.07
2019-02-21T15:44:04.506Z,12.05
2019-02-21T15:46:31.642Z,12.03
2019-02-21T15:48:58.758Z,12.01
2019-02-21T15:52:07.511Z,12.02
2019-02-21T15:55:13.459Z,11.98
2019-02-21T15:57:40.466Z,11.96
2019-02-21T16:00:11.208Z,11.91
2019-02-21T16:02:38.417Z,11.93
2019-02-21T16:05:05.673Z,11.97
2019-02-21T16:07:32.759Z,11.93
2019-02-21T16:09:59.878Z,11.84
2019-02-21T16:12:27.049Z,11.82
2019-02-21T16:14:54.109Z,11.78
2019-02-21T16:17:21.217Z,11.74
2019-02-21T16:19:48.361Z,11.73
2019-02-21T16:22:15.445Z,11.69
2019-02-21T16:24:43.695Z,11.63
2019-02-21T16:27:10.972Z,11.66
2019-02-21T16:29:38.309Z,11.61
2019-02-21T16:32:05.451Z,11.56
2019-02-21T16:34:33.174Z,11.51
2019-02-21T16:37:02.648Z,11.43
2019-02-21T16:39:31.724Z,11.36
2019-02-21T16:41:58.860Z,11.30
2019-02-21T16:44:26.016Z,11.25
2019-02-21T16:46:54.295Z,11.17
2019-02-21T16:49:21.365Z,11.07
2019-02-21T16:51:48.471Z,11.04
2019-02-21T16:54:15.615Z,10.99
2019-02-21T16:56:42.709Z,10.92
2019-02-21T16:59:09.865Z,10.87
2019-02-21T17:01:37.043Z,10.80
2019-02-21T17:04:04.136Z,10.74
2019-02-21T17:06:31.234Z,10.68
2019-02-21T17:08:58.302Z,10.62
2019-02-21T17:11:25.872Z,10.63
2019-02-21T17:13:54.875Z,10.60
2019-02-21T17:16:22.034Z,10.52
2019-02-21T17:18:49.066Z,10.48
2019-02-21T17:21:16.276Z,10.47
2019-02-21T17:23:43.627Z,10.49
2019-02-21T17:26:10.718Z,10.49
2019-02-21T17:28:37.774Z,10.48
2019-02-21T17:31:04.829Z,10.47
2019-02-21T17:33:31.939Z,10.45
2019-02-21T17:35:59.032Z,10.39
2019-02-21T17:38:26.095Z,10.40
2019-02-21T17:40:53.242Z,10.38
2019-02-21T17:43:20.310Z,10.40
2019-02-21T17:45:47.377Z,10.44
2019-02-21T17:48:14.607Z,10.43
2019-02-21T17:50:41.692Z,10.45
2019-02-21T17:53:09.415Z,10.47
2019-02-21T17:55:37.528Z,10.44
2019-02-21T17:58:04.619Z,10.39
2019-02-21T18:00:34.613Z,10.35
2019-02-21T18:03:01.743Z,10.35
2019-02-21T18:05:28.862Z,10.34
2019-02-21T18:07:55.937Z,10.37
2019-02-21T18:10:23.124Z,10.34
2019-02-21T18:12:50.322Z,10.34
2019-02-21T18:15:17.469Z,10.35
2019-02-21T18:17:44.684Z,10.35
2019-02-21T18:20:12.246Z,10.36
2019-02-21T18:22:39.360Z,10.34
2019-02-21T18:25:09.836Z,10.30
2019-02-21T18:27:37.158Z,10.25
2019-02-21T18:30:24.109Z,10.21
2019-02-21T18:32:51.372Z,10.19
2019-02-21T18:35:27.000Z,10.20
2019-02-21T18:37:54.920Z,10.16
2019-02-21T18:40:22.143Z,10.10
2019-02-21T18:43:44.319Z,10.07
2019-02-21T18:46:26.942Z,10.02
2019-02-21T18:48:55.412Z,10.00
2019-02-21T18:51:23.396Z,10.01
2019-02-21T18:53:50.547Z,9.98
2019-02-21T18:56:17.690Z,9.93
2019-02-21T18:58:44.786Z,9.93
2019-02-21T19:01:11.894Z,9.98
2019-02-21T19:03:39.068Z,10.04
2019-02-21T19:06:06.315Z,10.04
2019-02-21T19:08:33.566Z,10.08
2019-02-21T19:11:00.742Z,10.10
2019-02-21T19:13:27.849Z,10.12
2019-02-21T19:15:56.089Z,10.14
2019-02-21T19:18:24.311Z,10.15
2019-02-21T19:20:51.553Z,10.21
2019-02-21T19:23:18.873Z,10.23
2019-02-21T19:25:46.519Z,10.25
2019-02-21T19:28:13.718Z,10.24
2019-02-21T19:30:44.285Z,10.23
2019-02-21T19:33:12.185Z,10.24
2019-02-21T19:35:39.333Z,10.21
2019-02-21T19:38:10.385Z,10.21
2019-02-21T19:40:35.740Z,10.20
2019-02-21T19:43:02.913Z,10.23
2019-02-21T19:45:30.018Z,10.26
2019-02-21T19:47:57.343Z,10.28
2019-02-21T19:50:25.963Z,10.29
2019-02-21T19:52:53.197Z,10.23
2019-02-21T19:55:20.281Z,10.18
2019-02-21T19:57:47.822Z,10.16
2019-02-21T20:00:17.099Z,10.17
2019-02-21T20:02:44.292Z,10.11
2019-02-21T20:05:46.564Z,10.07
2019-02-21T20:08:21.028Z,10.09
2019-02-21T20:10:42.730Z,10.08
2019-02-21T20:13:10.806Z,10.07
2019-02-21T20:15:38.336Z,10.07
2019-02-21T20:18:05.812Z,10.03
2019-02-21T20:20:32.862Z,10.04
2019-02-21T20:23:00.079Z,10.00
2019-02-21T20:25:27.251Z,10.02
2019-02-21T20:27:54.814Z,10.02
2019-02-21T20:30:24.542Z,10.07
2019-02-21T20:32:51.743Z,10.04
2019-02-21T20:35:18.849Z,10.02
2019-02-21T20:37:46.055Z,10.08
2019-02-21T20:40:14.241Z,10.05
2019-02-21T20:42:41.573Z,10.02
2019-02-21T20:45:08.951Z,10.01
2019-02-21T20:47:36.132Z,10.01
2019-02-21T20:50:04.022Z,9.99
2019-02-21T20:52:31.185Z,9.97
2019-02-21T20:54:58.360Z,9.98
2019-02-21T20:57:25.591Z,9.94
2019-02-21T20:59:52.669Z,9.92
2019-02-21T21:02:20.236Z,9.87
2019-02-21T21:04:47.580Z,9.87
2019-02-21T21:07:24.853Z,9.87
2019-02-21T21:09:45.201Z,9.90
2019-02-21T21:12:12.443Z,9.80
2019-02-21T21:14:39.512Z,9.78
2019-02-21T21:17:06.638Z,9.74
2019-02-21T21:19:33.755Z,9.73
2019-02-21T21:22:00.842Z,9.72
2019-02-21T21:24:48.126Z,9.70
2019-02-21T21:27:15.214Z,9.70
2019-02-21T21:30:41.937Z,9.71
2019-02-21T21:33:09.002Z,9.72
2019-02-21T21:35:36.115Z,9.67
2019-02-21T21:38:03.227Z,9.68
2019-02-21T21:40:30.396Z,9.62
2019-02-21T21:42:57.496Z,9.59
2019-02-21T21:45:24.595Z,9.60
2019-02-21T21:47:51.814Z,9.56
2019-02-21T21:50:19.137Z,9.52
2019-02-21T21:52:46.366Z,9.45
2019-02-21T21:55:13.644Z,9.44
2019-02-21T21:57:40.829Z,9.42
2019-02-21T22:00:44.825Z,9.39
2019-02-21T22:03:11.990Z,9.35
2019-02-21T22:05:39.070Z,9.30
2019-02-21T22:08:06.354Z,9.29
2019-02-21T22:10:33.565Z,9.30
2019-02-21T22:13:00.650Z,9.29
2019-02-21T22:15:27.769Z,9.30
2019-02-21T22:17:54.854Z,9.32
2019-02-21T22:20:21.929Z,9.33
2019-02-21T22:22:49.019Z,9.33
2019-02-21T22:25:16.108Z,9.32
2019-02-21T22:27:43.158Z,9.32
2019-02-21T22:30:12.049Z,9.29
2019-02-21T22:32:39.125Z,9.29
2019-02-21T22:35:06.392Z,9.29
2019-02-21T22:37:33.635Z,9.27
2019-02-21T22:40:00.701Z,9.28
2019-02-21T22:42:27.796Z,9.30
2019-02-21T22:44:54.876Z,9.29
2019-02-21T22:47:22.065Z,9.30
2019-02-21T22:49:49.196Z,9.30
2019-02-21T22:52:17.139Z,9.30
2019-02-21T22:54:44.477Z,9.29
2019-02-21T22:57:11.655Z,9.29
2019-02-21T22:59:38.767Z,9.30
2019-02-21T23:02:26.612Z,9.29
2019-02-21T23:05:26.527Z,9.30
2019-02-21T23:08:20.793Z,9.25
2019-02-21T23:10:47.944Z,9.27
2019-02-21T23:13:14.994Z,9.27
2019-02-21T23:15:42.092Z,9.24
2019-02-21T23:18:09.209Z,9.27
2019-02-21T23:20:36.298Z,9.26
2019-02-21T23:23:03.383Z,9.25
2019-02-21T23:25:30.540Z,9.25
2019-02-21T23:27:57.731Z,9.26
2019-02-21T23:30:24.793Z,9.24
2019-02-21T23:32:51.923Z,9.25
2019-02-21T23:35:20.319Z,9.26
2019-02-21T23:37:47.393Z,9.26
2019-02-21T23:40:14.976Z,9.25
2019-02-21T23:42:42.064Z,9.24
2019-02-21T23:45:09.122Z,9.23
2019-02-21T23:47:36.289Z,9.21
2019-02-21T23:50:03.818Z,9.22
2019-02-21T23:52:30.903Z,9.21
2019-02-21T23:54:58.073Z,9.21
2019-02-21T23:57:25.131Z,9.21
2019-02-21T23:59:52.207Z,9.22
